Temp: 16.9°C   Baro: 1024.6mb
  Wind: 2.0mph   Dir: N (352°)
  Rain: 7.0mm (0.0mm/hr)
  Solar: 26W/m2  Hum: 67%

Historic data

Bath Spa Weather Station Historical Data
Daily Summary for August 04, 2022 Units:  Metric    English   Both
Daily Weekly Monthly Yearly Custom
  High: Low: Average:
Temperature: 23.1 °C 13.3 °C 17.6 °C
Dew Point: 14.5 °C 8.7 °C 11.9 °C
Humidity: 91% 44% 71%
Wind Speed: 15.1km/h 0km/h 5km/h
Wind Gust: 25.7km/h - -
Wind- - WNW
Pressure: 1020.2 hPa 1014.4 hPa -
Precipitation: 0 mm    
Historical Graphs
 
 
Tabular Data for August 04, 2022
Time Temperature Dew Point Pressure Wind Wind Speed Wind Gust Humidity Rainfall Rate (Hourly) solar
00:09 16.2 °C 13.4 °C 1014.8 hPa West 3.9 km/h 8 km/h 83.2% 0 mm 0 W/m2
00:14 16.2 °C 13.5 °C 1014.8 hPa West 3.2 km/h 8 km/h 84% 0 mm 0 W/m2
00:19 16.2 °C 13.5 °C 1014.8 hPa West 3.2 km/h 6.4 km/h 84% 0 mm 0 W/m2
00:24 16.1 °C 13.4 °C 1014.8 hPa West 3.7 km/h 6.4 km/h 84% 0 mm 0 W/m2
00:29 15.9 °C 13.3 °C 1014.8 hPa West 2.1 km/h 6.4 km/h 84% 0 mm 0 W/m2
00:34 15.8 °C 13.2 °C 1014.8 hPa West 3.2 km/h 6.4 km/h 84% 0 mm 0 W/m2
00:39 15.7 °C 13.2 °C 1014.8 hPa West 4.3 km/h 6.4 km/h 84.8% 0 mm 0 W/m2
00:44 15.7 °C 13.2 °C 1014.8 hPa West 3.4 km/h 6.4 km/h 85% 0 mm 0 W/m2
00:49 15.6 °C 13.1 °C 1014.8 hPa West 2.3 km/h 4.8 km/h 85% 0 mm 0 W/m2
00:54 15.6 °C 13.1 °C 1014.8 hPa West 2.1 km/h 4.8 km/h 85% 0 mm 0 W/m2
00:59 15.6 °C 13.1 °C 1014.8 hPa West 1.4 km/h 4.8 km/h 85.2% 0 mm 0 W/m2
01:04 15.6 °C 13.2 °C 1014.8 hPa West 2.6 km/h 4.8 km/h 86% 0 mm 0 W/m2
01:09 15.5 °C 13.2 °C 1014.8 hPa West 3.1 km/h 4.8 km/h 86% 0 mm 0 W/m2
01:14 15.5 °C 13.2 °C 1014.8 hPa West 2.7 km/h 4.8 km/h 86% 0 mm 0 W/m2
01:19 15.5 °C 13.2 °C 1014.8 hPa West 1.3 km/h 4.8 km/h 86% 0 mm 0 W/m2
01:24 15.4 °C 13.1 °C 1014.8 hPa West 2.1 km/h 4.8 km/h 86% 0 mm 0 W/m2
01:28 15.4 °C 13.1 °C 1014.4 hPa West 2.7 km/h 4.8 km/h 86% 0 mm 0 W/m2
01:34 15.4 °C 13.1 °C 1014.8 hPa West 3.2 km/h 4.8 km/h 86% 0 mm 0 W/m2
01:39 15.4 °C 13.1 °C 1014.8 hPa West 2.1 km/h 4.8 km/h 86% 0 mm 0 W/m2
01:44 15.4 °C 13.1 °C 1014.8 hPa West 2.1 km/h 4.8 km/h 86% 0 mm 0 W/m2
01:49 15.4 °C 13.1 °C 1014.8 hPa West 1 km/h 3.2 km/h 86% 0 mm 0 W/m2
01:54 15.3 °C 13 °C 1014.8 hPa West 1.4 km/h 3.2 km/h 86% 0 mm 0 W/m2
01:59 15.3 °C 13 °C 1014.8 hPa Calm     86% 0 mm 0 W/m2
02:04 15.2 °C 12.9 °C 1014.4 hPa Calm     86% 0 mm 0 W/m2
02:09 15.2 °C 12.9 °C 1014.8 hPa Calm     86% 0 mm 0 W/m2
02:14 15.1 °C 12.8 °C 1014.8 hPa Calm     86% 0 mm 0 W/m2
02:19 15 °C 12.7 °C 1014.4 hPa West 1.9 km/h 3.2 km/h 86% 0 mm 0 W/m2
02:24 14.9 °C 12.7 °C 1014.4 hPa West 1.9 km/h 4.8 km/h 86.8% 0 mm 0 W/m2
02:29 14.9 °C 12.8 °C 1014.4 hPa West 3.2 km/h 6.4 km/h 87% 0 mm 0 W/m2
02:34 14.9 °C 12.8 °C 1014.4 hPa West 1.6 km/h 4.8 km/h 87% 0 mm 0 W/m2
02:39 14.8 °C 12.7 °C 1014.4 hPa West 2.7 km/h 4.8 km/h 87% 0 mm 0 W/m2
02:44 14.8 °C 12.7 °C 1014.4 hPa West 1.8 km/h 4.8 km/h 87% 0 mm 0 W/m2
02:49 14.8 °C 12.7 °C 1014.4 hPa West 1.4 km/h 3.2 km/h 87% 0 mm 0 W/m2
02:54 14.7 °C 12.6 °C 1014.4 hPa West 3.2 km/h 4.8 km/h 87% 0 mm 0 W/m2
02:59 14.7 °C 12.7 °C 1014.4 hPa West 2.4 km/h 3.2 km/h 87% 0 mm 0 W/m2
03:04 14.7 °C 12.6 °C 1014.4 hPa West 2.7 km/h 4.8 km/h 87% 0 mm 0 W/m2
03:09 14.7 °C 12.6 °C 1014.4 hPa West 2.6 km/h 4.8 km/h 87% 0 mm 0 W/m2
03:14 14.7 °C 12.6 °C 1014.4 hPa West 0.8 km/h 3.2 km/h 87% 0 mm 0 W/m2
03:19 14.7 °C 12.6 °C 1014.4 hPa West 1.8 km/h 4.8 km/h 87.4% 0 mm 0 W/m2
03:24 14.6 °C 12.6 °C 1014.4 hPa West 1.1 km/h 4.8 km/h 88% 0 mm 0 W/m2
03:29 14.6 °C 12.5 °C 1014.4 hPa West 0.3 km/h 3.2 km/h 87.2% 0 mm 0 W/m2
03:34 14.5 °C 12.4 °C 1014.4 hPa Calm   1.6 km/h 87% 0 mm 0 W/m2
03:39 14.4 °C 12.3 °C 1014.4 hPa West 2.6 km/h 3.2 km/h 87.2% 0 mm 0 W/m2
03:44 14.3 °C 12.3 °C 1014.4 hPa West 1.8 km/h 3.2 km/h 87.8% 0 mm 0 W/m2
03:49 14.3 °C 12.3 °C 1014.4 hPa West 3.2 km/h 6.4 km/h 88% 0 mm 0 W/m2
03:54 14.2 °C 12.2 °C 1014.4 hPa West 1.1 km/h 4.8 km/h 88% 0 mm 0 W/m2
03:59 14.1 °C 12.1 °C 1014.4 hPa West 1.1 km/h 3.2 km/h 88% 0 mm 0 W/m2
04:04 14 °C 12 °C 1014.4 hPa West 0.8 km/h 1.6 km/h 88% 0 mm 0 W/m2
04:09 13.9 °C 11.9 °C 1014.4 hPa West 1.3 km/h 3.2 km/h 88% 0 mm 0 W/m2
04:14 13.9 °C 11.9 °C 1014.4 hPa Calm   3.2 km/h 88% 0 mm 0 W/m2
04:18 13.8 °C 11.9 °C 1014.4 hPa Calm     88.8% 0 mm 0 W/m2
04:24 13.8 °C 11.8 °C 1014.4 hPa West 1.9 km/h 3.2 km/h 88% 0 mm 0 W/m2
04:29 13.8 °C 11.9 °C 1014.4 hPa West 0.6 km/h 3.2 km/h 88.6% 0 mm 0 W/m2
04:34 13.7 °C 11.9 °C 1014.4 hPa Calm     89% 0 mm 0 W/m2
04:39 13.7 °C 11.9 °C 1014.4 hPa Calm     89% 0 mm 0 W/m2
04:44 13.7 °C 11.9 °C 1014.4 hPa Calm     89% 0 mm 0 W/m2
04:49 13.6 °C 11.8 °C 1014.4 hPa Calm     89% 0 mm 0 W/m2
04:54 13.6 °C 11.8 °C 1014.4 hPa West 1 km/h 3.2 km/h 89% 0 mm 0 W/m2
04:59 13.4 °C 11.7 °C 1014.4 hPa West 1.9 km/h 4.8 km/h 89% 0 mm 0 W/m2
05:04 13.4 °C 11.7 °C 1014.4 hPa West 3.9 km/h 6.4 km/h 89% 0 mm 0 W/m2
05:09 13.5 °C 11.7 °C 1014.4 hPa West 4.7 km/h 6.4 km/h 89% 0 mm 0 W/m2
05:14 13.6 °C 11.8 °C 1014.8 hPa West 4 km/h 6.4 km/h 89.3% 0 mm 0 W/m2
05:19 13.6 °C 11.9 °C 1014.8 hPa West 4 km/h 6.4 km/h 89.8% 0 mm 0 W/m2
05:24 13.6 °C 12 °C 1014.8 hPa West 2.6 km/h 6.4 km/h 90% 0 mm 0 W/m2
05:29 13.6 °C 12 °C 1014.8 hPa West 2.6 km/h 4.8 km/h 90% 0 mm 0 W/m2
05:34 13.6 °C 12 °C 1014.8 hPa West 2.9 km/h 4.8 km/h 90% 0 mm 0 W/m2
05:39 13.6 °C 12 °C 1014.8 hPa West 1.9 km/h 4.8 km/h 90% 0 mm 0 W/m2
05:44 13.6 °C 12 °C 1014.8 hPa Calm     90% 0 mm 5 W/m2
05:49 13.6 °C 12 °C 1014.8 hPa Calm     90% 0 mm 11 W/m2
05:54 13.6 °C 12 °C 1014.8 hPa Calm     90% 0 mm 18 W/m2
05:59 13.6 °C 12 °C 1014.8 hPa Calm     90% 0 mm 18 W/m2
06:04 13.6 °C 11.9 °C 1014.8 hPa Calm     90% 0 mm 18 W/m2
06:09 13.4 °C 11.8 °C 1014.8 hPa West 0.6 km/h 4.8 km/h 90% 0 mm 19 W/m2
06:14 13.4 °C 11.8 °C 1014.8 hPa West 4 km/h 6.4 km/h 90% 0 mm 19 W/m2
06:19 13.3 °C 11.8 °C 1014.8 hPa West 3.9 km/h 6.4 km/h 90.4% 0 mm 25 W/m2
06:24 13.3 °C 11.9 °C 1015.1 hPa West 0.6 km/h 3.2 km/h 91% 0 mm 33 W/m2
06:29 13.3 °C 11.9 °C 1015.1 hPa Calm   1.6 km/h 91% 0 mm 40 W/m2
06:34 13.3 °C 11.9 °C 1015.1 hPa West 2.1 km/h 4.8 km/h 91% 0 mm 40 W/m2
06:39 13.4 °C 12 °C 1015.1 hPa West 3.5 km/h 6.4 km/h 91% 0 mm 42 W/m2
06:44 13.4 °C 12.1 °C 1015.1 hPa West 1.4 km/h 4.8 km/h 91% 0 mm 47 W/m2
06:49 13.6 °C 12.2 °C 1015.1 hPa West 2.7 km/h 4.8 km/h 91% 0 mm 53 W/m2
06:54 13.6 °C 12.2 °C 1015.1 hPa West 2.6 km/h 4.8 km/h 91% 0 mm 54 W/m2
06:59 13.7 °C 12.2 °C 1015.1 hPa West 3.2 km/h 4.8 km/h 91% 0 mm 63 W/m2
07:04 13.7 °C 12.3 °C 1015.1 hPa West 2.1 km/h 4.8 km/h 91% 0 mm 69 W/m2
07:09 13.8 °C 12.4 °C 1015.1 hPa West 3.2 km/h 6.4 km/h 91% 0 mm 84 W/m2
07:14 13.8 °C 12.4 °C 1015.1 hPa West 2.3 km/h 4.8 km/h 91% 0 mm 120 W/m2
07:19 14 °C 12.6 °C 1015.5 hPa West 2.7 km/h 4.8 km/h 91% 0 mm 128 W/m2
07:24 14.1 °C 12.7 °C 1015.5 hPa West 1.9 km/h 3.2 km/h 91% 0 mm 109 W/m2
07:29 14.3 °C 12.9 °C 1015.5 hPa West 2.9 km/h 4.8 km/h 91% 0 mm 181 W/m2
07:34 14.4 °C 12.9 °C 1015.5 hPa West 5.5 km/h 6.4 km/h 91% 0 mm 214 W/m2
07:39 14.7 °C 13.2 °C 1015.5 hPa WNW 4.7 km/h 9.7 km/h 91% 0 mm 232 W/m2
07:44 14.8 °C 13.3 °C 1015.8 hPa WNW 3.2 km/h 6.4 km/h 91% 0 mm 227 W/m2
07:49 15.1 °C 13.6 °C 1015.5 hPa WNW 1.9 km/h 4.8 km/h 91% 0 mm 221 W/m2
07:54 15.2 °C 13.6 °C 1015.5 hPa WNW 1.9 km/h 4.8 km/h 90% 0 mm 248 W/m2
07:59 15.3 °C 13.8 °C 1015.8 hPa WNW 2.6 km/h 4.8 km/h 90% 0 mm 248 W/m2
08:04 15.6 °C 13.9 °C 1015.8 hPa WNW 2.3 km/h 6.4 km/h 90% 0 mm 190 W/m2
08:09 15.7 °C 13.9 °C 1015.8 hPa WNW 2.3 km/h 6.4 km/h 89% 0 mm 149 W/m2
08:14 15.7 °C 13.9 °C 1016.1 hPa WNW 1.9 km/h 8 km/h 89% 0 mm 160 W/m2
08:19 15.8 °C 14 °C 1016.1 hPa WNW 2.1 km/h 4.8 km/h 89% 0 mm 199 W/m2
08:24 15.8 °C 14 °C 1016.1 hPa WNW 4 km/h 8 km/h 88.8% 0 mm 216 W/m2
08:29 16 °C 14 °C 1016.1 hPa WNW 2.1 km/h 8 km/h 88% 0 mm 294 W/m2
08:33 16.2 °C 14.2 °C 1016.1 hPa WNW 3.2 km/h 8 km/h 88% 0 mm 364 W/m2
08:39 16.4 °C 14.4 °C 1016.1 hPa WNW 1.9 km/h 6.4 km/h 88% 0 mm 193 W/m2
08:44 16.4 °C 14.3 °C 1016.1 hPa WNW 4 km/h 8 km/h 87.4% 0 mm 200 W/m2
08:49 16.6 °C 14.4 °C 1016.1 hPa WNW 2.4 km/h 4.8 km/h 87% 0 mm 218 W/m2
08:54 16.7 °C 14.3 °C 1016.1 hPa WNW 5.8 km/h 8 km/h 86% 0 mm 276 W/m2
08:59 16.7 °C 14.3 °C 1016.1 hPa WNW 3.9 km/h 9.7 km/h 86% 0 mm 399 W/m2
09:04 16.8 °C 14.3 °C 1016.1 hPa WNW 3.7 km/h 9.7 km/h 85.4% 0 mm 373 W/m2
09:09 17 °C 14.5 °C 1016.1 hPa WNW 3.7 km/h 8 km/h 84.8% 0 mm 461 W/m2
09:14 17.2 °C 14.4 °C 1016.1 hPa NW 5 km/h 9.7 km/h 83.6% 0 mm 461 W/m2
09:19 17.1 °C 14.1 °C 1016.1 hPa NW 3.9 km/h 8 km/h 82.2% 0 mm 255 W/m2
09:24 17.2 °C 14.1 °C 1016.1 hPa WNW 4.3 km/h 11.3 km/h 82% 0 mm 475 W/m2
09:29 17.3 °C 13.9 °C 1016.1 hPa WNW 5.6 km/h 9.7 km/h 80.4% 0 mm 601 W/m2
09:34 17.4 °C 13.7 °C 1016.1 hPa NW 7.2 km/h 12.9 km/h 79% 0 mm 601 W/m2
09:39 17.6 °C 13.7 °C 1016.1 hPa NNW 3.5 km/h 8 km/h 78.2% 0 mm 207 W/m2
09:44 17.6 °C 13.7 °C 1016.5 hPa NNW 4.3 km/h 9.7 km/h 78% 0 mm 109 W/m2
09:49 17.7 °C 13.8 °C 1016.5 hPa NNW 3.4 km/h 6.4 km/h 78% 0 mm 116 W/m2
09:54 17.7 °C 13.8 °C 1016.5 hPa NNW 4.5 km/h 9.7 km/h 78% 0 mm 179 W/m2
09:59 17.7 °C 13.6 °C 1016.5 hPa NNW 2.6 km/h 6.4 km/h 77% 0 mm 308 W/m2
10:04 17.7 °C 13.7 °C 1016.5 hPa NNW 3.2 km/h 6.4 km/h 77% 0 mm 323 W/m2
10:09 17.8 °C 13.7 °C 1016.5 hPa NNW 4.5 km/h 9.7 km/h 76.6% 0 mm 360 W/m2
10:14 17.9 °C 13.6 °C 1016.5 hPa NW 5.8 km/h 11.3 km/h 76% 0 mm 759 W/m2
10:19 18 °C 13.7 °C 1016.5 hPa NW 1.9 km/h 6.4 km/h 76% 0 mm 327 W/m2
10:24 18.2 °C 13.8 °C 1016.5 hPa NW 5.1 km/h 9.7 km/h 75.6% 0 mm 209 W/m2
10:29 18.2 °C 13.6 °C 1016.5 hPa NW 4.2 km/h 9.7 km/h 74.6% 0 mm 171 W/m2
10:34 18.1 °C 13.4 °C 1016.5 hPa NW 5.8 km/h 9.7 km/h 74% 0 mm 183 W/m2
10:39 18 °C 13.3 °C 1016.5 hPa NW 4.2 km/h 8 km/h 74% 0 mm 225 W/m2
10:44 18.1 °C 13.5 °C 1016.5 hPa NW 2.9 km/h 9.7 km/h 74.6% 0 mm 341 W/m2
10:49 18.3 °C 13.6 °C 1016.5 hPa WNW 2.6 km/h 6.4 km/h 74% 0 mm 341 W/m2
10:53 18.6 °C 13.7 °C 1016.5 hPa WNW 4.3 km/h 11.3 km/h 73% 0 mm 606 W/m2
10:59 18.5 °C 13.3 °C 1016.5 hPa WNW 5.5 km/h 11.3 km/h 71.8% 0 mm 413 W/m2
11:04 18.6 °C 13.4 °C 1016.8 hPa WNW 4 km/h 8 km/h 71.6% 0 mm 211 W/m2
11:09 18.6 °C 13.4 °C 1016.8 hPa West 5.8 km/h 9.7 km/h 71.8% 0 mm 267 W/m2
11:14 18.7 °C 13.5 °C 1016.8 hPa West 5.3 km/h 9.7 km/h 72% 0 mm 823 W/m2
11:19 18.8 °C 13.4 °C 1016.8 hPa WNW 5.3 km/h 12.9 km/h 71.2% 0 mm 816 W/m2
11:24 18.8 °C 13.4 °C 1016.8 hPa NNW 5.3 km/h 12.9 km/h 71% 0 mm 269 W/m2
11:29 18.8 °C 13.4 °C 1016.8 hPa WNW 5.6 km/h 11.3 km/h 71% 0 mm 392 W/m2
11:34 19.1 °C 13.7 °C 1016.8 hPa West 3.4 km/h 9.7 km/h 71% 0 mm 912 W/m2
11:39 19.4 °C 13.7 °C 1016.8 hPa WNW 9 km/h 14.5 km/h 69.6% 0 mm 942 W/m2
11:44 19.6 °C 13.5 °C 1016.8 hPa West 4.5 km/h 12.9 km/h 67.8% 0 mm 942 W/m2
11:49 19.8 °C 13.5 °C 1016.8 hPa West 10 km/h 16.1 km/h 67.3% 0 mm 297 W/m2
11:54 19.6 °C 13.7 °C 1016.8 hPa NW 8.7 km/h 12.9 km/h 68.4% 0 mm 810 W/m2
11:59 19.7 °C 13.8 °C 1016.8 hPa NNW 11.6 km/h 20.9 km/h 68.4% 0 mm 780 W/m2
12:04 19.4 °C 13.1 °C 1016.8 hPa NW 7.6 km/h 19.3 km/h 67% 0 mm 239 W/m2
12:09 19.4 °C 13.1 °C 1016.8 hPa NNW 9 km/h 16.1 km/h 66.8% 0 mm 819 W/m2
12:14 19.9 °C 12.8 °C 1016.8 hPa NW 11.9 km/h 20.9 km/h 63.6% 0 mm 847 W/m2
12:19 19.8 °C 12.3 °C 1016.8 hPa WNW 11.3 km/h 22.5 km/h 62% 0 mm 837 W/m2
12:24 19.6 °C 12.3 °C 1017.2 hPa NW 12.2 km/h 22.5 km/h 62.6% 0 mm 765 W/m2
12:29 19.9 °C 12.6 °C 1017.2 hPa WNW 7.4 km/h 16.1 km/h 62.6% 0 mm 842 W/m2
12:34 20.3 °C 12.2 °C 1017.2 hPa WNW 9.3 km/h 19.3 km/h 59.6% 0 mm 831 W/m2
12:39 20.4 °C 12.3 °C 1017.2 hPa WNW 6.9 km/h 17.7 km/h 59.8% 0 mm 756 W/m2
12:44 20.6 °C 12.2 °C 1017.2 hPa WNW 11.1 km/h 20.9 km/h 58.6% 0 mm 747 W/m2
12:49 20.4 °C 12.1 °C 1017.2 hPa West 6.8 km/h 16.1 km/h 58.8% 0 mm 710 W/m2
12:54 20.7 °C 12.2 °C 1017.2 hPa West 11.9 km/h 19.3 km/h 58.6% 0 mm 671 W/m2
12:59 20.6 °C 11.6 °C 1017.2 hPa NW 15.1 km/h 25.7 km/h 56.4% 0 mm 728 W/m2
13:04 20.3 °C 11.2 °C 1017.2 hPa WNW 9 km/h 22.5 km/h 55.8% 0 mm 656 W/m2
13:09 20.4 °C 11.3 °C 1017.2 hPa NW 12.7 km/h 20.9 km/h 56.2% 0 mm 784 W/m2
13:14 20.8 °C 11.9 °C 1017.2 hPa North 8.4 km/h 19.3 km/h 56.6% 0 mm 793 W/m2
13:19 20.8 °C 11.8 °C 1017.2 hPa WNW 14.5 km/h 22.5 km/h 56.4% 0 mm 747 W/m2
13:24 20.7 °C 11.9 °C 1017.2 hPa WNW 11.9 km/h 19.3 km/h 57% 0 mm 798 W/m2
13:29 20.8 °C 12.1 °C 1017.2 hPa West 13.5 km/h 22.5 km/h 57.6% 0 mm 849 W/m2
13:34 20.7 °C 11.9 °C 1017.2 hPa WNW 10.6 km/h 22.5 km/h 57.6% 0 mm 696 W/m2
13:39 20.7 °C 12.1 °C 1017.2 hPa WNW 14.8 km/h 19.3 km/h 58% 0 mm 657 W/m2
13:44 20.6 °C 12.2 °C 1017.2 hPa WNW 9.7 km/h 24.1 km/h 58.8% 0 mm 561 W/m2
13:49 20.3 °C 12.2 °C 1017.2 hPa WNW 10 km/h 19.3 km/h 59.6% 0 mm 357 W/m2
13:54 20.4 °C 12.3 °C 1017.2 hPa WNW 8.4 km/h 17.7 km/h 59.6% 0 mm 443 W/m2
13:59 20.5 °C 12.4 °C 1017.2 hPa NW 8.9 km/h 17.7 km/h 59.5% 0 mm 867 W/m2
14:04 20.8 °C 12.2 °C 1017.2 hPa WNW 7.7 km/h 16.1 km/h 57.6% 0 mm 867 W/m2
14:09 20.7 °C 11.7 °C 1017.2 hPa NW 6.8 km/h 16.1 km/h 56.2% 0 mm 696 W/m2
14:14 20.6 °C 11.6 °C 1017.2 hPa NW 7.9 km/h 20.9 km/h 56.4% 0 mm 728 W/m2
14:19 20.7 °C 11.3 °C 1017.2 hPa WNW 9.5 km/h 20.9 km/h 55% 0 mm 643 W/m2
14:24 20.6 °C 11.3 °C 1017.2 hPa WNW 9.2 km/h 19.3 km/h 55.2% 0 mm 392 W/m2
14:29 20.8 °C 11.6 °C 1017.2 hPa WNW 10.3 km/h 14.5 km/h 55.6% 0 mm 450 W/m2
14:34 20.7 °C 11.4 °C 1017.2 hPa WNW 10.3 km/h 16.1 km/h 55.2% 0 mm 417 W/m2
14:39 20.4 °C 11.2 °C 1017.2 hPa NW 9.5 km/h 19.3 km/h 55.4% 0 mm 417 W/m2
14:44 20.5 °C 11.4 °C 1017.2 hPa WNW 8.4 km/h 19.3 km/h 56% 0 mm 631 W/m2
14:49 20.8 °C 11.4 °C 1017.2 hPa WNW 10.1 km/h 20.9 km/h 55.2% 0 mm 712 W/m2
14:54 21 °C 11.6 °C 1017.2 hPa WNW 7.9 km/h 24.1 km/h 54.8% 0 mm 568 W/m2
14:59 20.8 °C 11.4 °C 1017.2 hPa WNW 11.9 km/h 22.5 km/h 55% 0 mm 554 W/m2
15:04 20.7 °C 11.3 °C 1017.2 hPa WNW 10 km/h 14.5 km/h 55% 0 mm 355 W/m2
15:09 20.7 °C 11.3 °C 1017.2 hPa WNW 10.9 km/h 14.5 km/h 55% 0 mm 628 W/m2
15:14 20.7 °C 11.1 °C 1017.2 hPa WNW 11.3 km/h 17.7 km/h 53.8% 0 mm 592 W/m2
15:19 20.4 °C 11 °C 1017.2 hPa WNW 12.9 km/h 22.5 km/h 54.8% 0 mm 392 W/m2
15:24 20.4 °C 11.1 °C 1017.2 hPa NW 9.7 km/h 19.3 km/h 55.2% 0 mm 584 W/m2
15:29 20.7 °C 11.1 °C 1017.5 hPa WNW 7.2 km/h 14.5 km/h 54.4% 0 mm 664 W/m2
15:34 20.6 °C 11 °C 1017.2 hPa WNW 11.6 km/h 22.5 km/h 54% 0 mm 374 W/m2
15:39 20.6 °C 10.9 °C 1017.2 hPa NW 7.6 km/h 17.7 km/h 54% 0 mm 311 W/m2
15:44 20.6 °C 10.9 °C 1017.2 hPa WNW 8.5 km/h 17.7 km/h 53.8% 0 mm 327 W/m2
15:49 20.5 °C 10.7 °C 1017.2 hPa WNW 4.8 km/h 16.1 km/h 53.4% 0 mm 346 W/m2
15:54 20.8 °C 11.2 °C 1017.2 hPa NW 7.9 km/h 12.9 km/h 54% 0 mm 612 W/m2
15:59 21.1 °C 11.2 °C 1017.2 hPa NW 9.3 km/h 17.7 km/h 53% 0 mm 708 W/m2
16:04 21.3 °C 11.1 °C 1017.2 hPa West 10 km/h 17.7 km/h 52.2% 0 mm 629 W/m2
16:09 21.2 °C 10.9 °C 1017.2 hPa West 6.1 km/h 19.3 km/h 51.8% 0 mm 531 W/m2
16:14 21.1 °C 10.9 °C 1017.2 hPa West 8 km/h 19.3 km/h 52.2% 0 mm 557 W/m2
16:19 21.3 °C 11 °C 1017.2 hPa North 9.5 km/h 16.1 km/h 51.8% 0 mm 633 W/m2
16:24 21.3 °C 10.7 °C 1017.2 hPa NNW 6.1 km/h 16.1 km/h 50.8% 0 mm 633 W/m2
16:29 21.3 °C 10.8 °C 1017.2 hPa NW 7.9 km/h 16.1 km/h 51.2% 0 mm 643 W/m2
16:34 21.3 °C 10.7 °C 1017.2 hPa NW 9.5 km/h 17.7 km/h 50.8% 0 mm 527 W/m2
16:39 21.3 °C 10.8 °C 1017.2 hPa WNW 7.6 km/h 17.7 km/h 51% 0 mm 596 W/m2
16:44 21.4 °C 10.7 °C 1017.2 hPa WNW 6 km/h 19.3 km/h 50.6% 0 mm 629 W/m2
16:49 21.6 °C 10.9 °C 1017.2 hPa NW 7.1 km/h 19.3 km/h 50.6% 0 mm 629 W/m2
16:54 21.4 °C 10.6 °C 1017.2 hPa NNW 8.9 km/h 17.7 km/h 50% 0 mm 548 W/m2
16:59 21.3 °C 10.6 °C 1017.2 hPa NW 8.9 km/h 17.7 km/h 50.3% 0 mm 578 W/m2
17:04 21.3 °C 10.7 °C 1017.2 hPa NW 5.1 km/h 12.9 km/h 50.6% 0 mm 504 W/m2
17:09 21.6 °C 10.7 °C 1017.2 hPa NNW 7.4 km/h 14.5 km/h 50% 0 mm 237 W/m2
17:14 21.4 °C 10.5 °C 1017.2 hPa North 7.4 km/h 14.5 km/h 50% 0 mm 239 W/m2
17:19 21.2 °C 10.4 °C 1017.2 hPa NNW 8.7 km/h 16.1 km/h 50% 0 mm 388 W/m2
17:24 20.8 °C 10.3 °C 1017.2 hPa NNW 8 km/h 14.5 km/h 51% 0 mm 181 W/m2
17:29 20.6 °C 10.1 °C 1017.2 hPa NW 5.3 km/h 16.1 km/h 51% 0 mm 223 W/m2
17:34 20.7 °C 10.2 °C 1017.2 hPa NW 4.7 km/h 9.7 km/h 51% 0 mm 608 W/m2
17:39 21.2 °C 10.4 °C 1017.2 hPa NNW 2.4 km/h 8 km/h 50.2% 0 mm 561 W/m2
17:44 21.9 °C 10.6 °C 1017.2 hPa North 7.4 km/h 17.7 km/h 48.4% 0 mm 552 W/m2
17:49 22.4 °C 10.4 °C 1017.2 hPa NNE 5.8 km/h 17.7 km/h 46.6% 0 mm 543 W/m2
17:54 22.6 °C 10.1 °C 1017.2 hPa NNE 6.9 km/h 12.9 km/h 45% 0 mm 519 W/m2
17:59 22.7 °C 10.1 °C 1017.2 hPa North 4.8 km/h 11.3 km/h 44.6% 0 mm 454 W/m2
18:04 22.7 °C 10.2 °C 1017.2 hPa NNE 7.7 km/h 12.9 km/h 45% 0 mm 441 W/m2
18:09 22.8 °C 9.9 °C 1017.2 hPa North 2.4 km/h 9.7 km/h 44% 0 mm 408 W/m2
18:14 23 °C 10.2 °C 1017.2 hPa NW 2.4 km/h 8 km/h 44.3% 0 mm 446 W/m2
18:19 22.7 °C 10.3 °C 1017.2 hPa NW 7.1 km/h 12.9 km/h 45.2% 0 mm 459 W/m2
18:24 22.6 °C 10.2 °C 1017.2 hPa NNE 4.3 km/h 9.7 km/h 45.4% 0 mm 450 W/m2
18:29 23.1 °C 10.6 °C 1017.2 hPa NE 9.8 km/h 16.1 km/h 45.4% 0 mm 452 W/m2
18:34 23.1 °C 10.2 °C 1017.2 hPa North 6 km/h 16.1 km/h 44% 0 mm 378 W/m2
18:39 22.7 °C 10.1 °C 1017.2 hPa NE 4 km/h 9.7 km/h 44.8% 0 mm 186 W/m2
18:44 22.7 °C 10.3 °C 1017.2 hPa North 2.7 km/h 8 km/h 45.4% 0 mm 220 W/m2
18:49 22.5 °C 10.2 °C 1017.5 hPa NNE 8 km/h 14.5 km/h 45.6% 0 mm 357 W/m2
18:54 22.3 °C 9.9 °C 1017.5 hPa NNW 5 km/h 11.3 km/h 45.4% 0 mm 348 W/m2
18:59 22.2 °C 10.4 °C 1017.5 hPa NNW 7.1 km/h 19.3 km/h 47.2% 0 mm 316 W/m2
19:04 22.2 °C 10.7 °C 1017.5 hPa NNW 11.6 km/h 16.1 km/h 48% 0 mm 285 W/m2
19:09 21.7 °C 10.5 °C 1017.5 hPa NW 8.5 km/h 17.7 km/h 49% 0 mm 253 W/m2
19:14 21.4 °C 10.5 °C 1017.5 hPa NW 9 km/h 17.7 km/h 50% 0 mm 248 W/m2
19:19 21.1 °C 10.5 °C 1017.5 hPa NW 9.8 km/h 17.7 km/h 50.6% 0 mm 151 W/m2
19:24 20.8 °C 10.5 °C 1017.5 hPa WNW 8.4 km/h 20.9 km/h 51.8% 0 mm 109 W/m2
19:29 20.7 °C 10.7 °C 1017.5 hPa North 11.9 km/h 19.3 km/h 52.6% 0 mm 95 W/m2
19:34 20.5 °C 10.8 °C 1017.8 hPa NW 6 km/h 17.7 km/h 53.8% 0 mm 104 W/m2
19:39 20.4 °C 11.1 °C 1017.8 hPa NNW 12.9 km/h 19.3 km/h 55% 0 mm 77 W/m2
19:44 20.3 °C 11.1 °C 1017.8 hPa North 7.2 km/h 19.3 km/h 55.8% 0 mm 65 W/m2
19:49 20 °C 11.1 °C 1017.8 hPa North 7.2 km/h 16.1 km/h 56.6% 0 mm 72 W/m2
19:54 19.8 °C 11 °C 1017.8 hPa North 9 km/h 14.5 km/h 57% 0 mm 76 W/m2
19:59 19.7 °C 11.1 °C 1017.8 hPa NNW 9.7 km/h 14.5 km/h 57.8% 0 mm 42 W/m2
20:04 19.6 °C 11.1 °C 1017.8 hPa North 9 km/h 14.5 km/h 58% 0 mm 56 W/m2
20:09 19.7 °C 11.2 °C 1018.2 hPa NNW 7.6 km/h 12.9 km/h 58% 0 mm 53 W/m2
20:14 19.7 °C 11.2 °C 1018.2 hPa North 6.3 km/h 11.3 km/h 58% 0 mm 42 W/m2
20:19 19.7 °C 11.2 °C 1018.2 hPa North 7.2 km/h 14.5 km/h 58% 0 mm 32 W/m2
20:24 19.4 °C 11.1 °C 1018.2 hPa North 7.7 km/h 12.9 km/h 58.6% 0 mm 21 W/m2
20:29 19.1 °C 11.1 °C 1018.2 hPa NNW 7.9 km/h 19.3 km/h 59.8% 0 mm 18 W/m2
20:34 18.8 °C 11 °C 1018.2 hPa North 5 km/h 14.5 km/h 60.6% 0 mm 14 W/m2
20:39 18.6 °C 11 °C 1018.2 hPa NNW 6.4 km/h 11.3 km/h 61.4% 0 mm 12 W/m2
20:44 18.4 °C 11 °C 1018.2 hPa North 2.7 km/h 11.3 km/h 62% 0 mm 9 W/m2
20:49 18.3 °C 11 °C 1018.5 hPa North 6 km/h 9.7 km/h 62.8% 0 mm 7 W/m2
20:54 18.1 °C 11 °C 1018.5 hPa NNW 3.9 km/h 8 km/h 63.2% 0 mm 5 W/m2
20:59 17.9 °C 11 °C 1018.5 hPa NNW 5.1 km/h 11.3 km/h 64% 0 mm 0 W/m2
21:04 17.7 °C 11.1 °C 1018.5 hPa NW 5.1 km/h 9.7 km/h 65% 0 mm 0 W/m2
21:09 17.7 °C 11.1 °C 1018.8 hPa NNW 5.1 km/h 9.7 km/h 65.4% 0 mm 0 W/m2
21:14 17.5 °C 11.1 °C 1018.8 hPa NW 4.5 km/h 9.7 km/h 66% 0 mm 0 W/m2
21:19 17.4 °C 11 °C 1018.8 hPa NNW 5.3 km/h 9.7 km/h 66% 0 mm 0 W/m2
21:24 17.3 °C 11.1 °C 1018.8 hPa NNW 3.9 km/h 9.7 km/h 66.8% 0 mm 0 W/m2
21:29 17.3 °C 11.1 °C 1018.8 hPa NNW 2.7 km/h 6.4 km/h 67% 0 mm 0 W/m2
21:34 17.2 °C 10.9 °C 1018.8 hPa NW 5.1 km/h 9.7 km/h 67% 0 mm 0 W/m2
21:39 17 °C 10.8 °C 1018.8 hPa NNW 5.6 km/h 12.9 km/h 67% 0 mm 0 W/m2
21:44 16.9 °C 10.7 °C 1019.2 hPa NNW 5.1 km/h 12.9 km/h 67% 0 mm 0 W/m2
21:49 16.8 °C 10.7 °C 1019.2 hPa North 8.2 km/h 14.5 km/h 67% 0 mm 0 W/m2
21:54 16.7 °C 10.6 °C 1019.2 hPa NW 6.4 km/h 12.9 km/h 67% 0 mm 0 W/m2
21:59 16.7 °C 10.5 °C 1019.5 hPa NNW 8.2 km/h 14.5 km/h 67% 0 mm 0 W/m2
22:04 16.6 °C 10.4 °C 1019.5 hPa NNW 3.9 km/h 12.9 km/h 67% 0 mm 0 W/m2
22:09 16.6 °C 10.4 °C 1019.5 hPa North 4.5 km/h 9.7 km/h 67% 0 mm 0 W/m2
22:14 16.4 °C 10.3 °C 1019.5 hPa NW 4 km/h 9.7 km/h 67% 0 mm 0 W/m2
22:19 16.4 °C 10.3 °C 1019.5 hPa NNW 5 km/h 11.3 km/h 67% 0 mm 0 W/m2
22:24 16.3 °C 10.4 °C 1019.5 hPa WNW 4.2 km/h 11.3 km/h 68% 0 mm 0 W/m2
22:29 16.2 °C 10.3 °C 1019.5 hPa NW 5.3 km/h 9.7 km/h 68% 0 mm 0 W/m2
22:34 16.2 °C 10.3 °C 1019.5 hPa NNW 2.1 km/h 6.4 km/h 68% 0 mm 0 W/m2
22:39 16.1 °C 10.2 °C 1019.9 hPa NNW 4.5 km/h 6.4 km/h 68% 0 mm 0 W/m2
22:44 16.1 °C 10 °C 1019.9 hPa NW 3.9 km/h 11.3 km/h 67% 0 mm 0 W/m2
22:49 16 °C 9.9 °C 1019.9 hPa NW 3.9 km/h 6.4 km/h 67% 0 mm 0 W/m2
22:54 15.9 °C 9.8 °C 1019.9 hPa NW 2.3 km/h 4.8 km/h 67% 0 mm 0 W/m2
22:59 15.8 °C 9.7 °C 1019.9 hPa NW 1.4 km/h 4.8 km/h 67% 0 mm 0 W/m2
23:04 15.8 °C 9.7 °C 1019.9 hPa NW 2.7 km/h 6.4 km/h 67% 0 mm 0 W/m2
23:09 15.7 °C 9.6 °C 1019.9 hPa NW 3.7 km/h 8 km/h 67% 0 mm 0 W/m2
23:14 15.5 °C 9.4 °C 1019.9 hPa NW 2.6 km/h 8 km/h 67% 0 mm 0 W/m2
23:19 15.4 °C 9.3 °C 1019.9 hPa NW 1.3 km/h 4.8 km/h 67% 0 mm 0 W/m2
23:24 15.3 °C 9.2 °C 1020.2 hPa Calm   4.8 km/h 67% 0 mm 0 W/m2
23:29 15.3 °C 9.2 °C 1020.2 hPa NW 0.6 km/h 4.8 km/h 67% 0 mm 0 W/m2
23:34 15.2 °C 9.2 °C 1020.2 hPa NW 2.1 km/h 6.4 km/h 67% 0 mm 0 W/m2
23:39 15.2 °C 8.8 °C 1020.2 hPa NW 1.9 km/h 6.4 km/h 66% 0 mm 0 W/m2
23:44 15.1 °C 8.8 °C 1020.2 hPa NW 1.4 km/h 4.8 km/h 66.4% 0 mm 0 W/m2
23:49 15 °C 8.9 °C 1020.2 hPa NW 0.6 km/h 3.2 km/h 66.8% 0 mm 0 W/m2
23:54 15 °C 8.8 °C 1020.2 hPa NW 2.9 km/h 6.4 km/h 66.8% 0 mm 0 W/m2
23:59 14.9 °C 8.7 °C 1020.2 hPa NW 2.1 km/h 6.4 km/h 66% 0 mm 0 W/m2
Bath Spa Weather
Compliments of Weather Underground - 2 mb